Time;durP1;ratioP1;P1;durP2;ratioP2;P2;SDS_P1;SDS_P2;PMS_P1;PMS_P2;Temp;Humidity;BMP_temperature;BMP_pressure;BME280_temperature;BME280_humidity;BME280_pressure;Samples;Min_cycle;Max_cycle;Signal;HPM_P1;HPM_P2
2023/06/02 00:01:09;;;;;;;7.13;3.23;;;;;;;17.52;93.58;99622.06;6295801;28;20049;-73
2023/06/02 00:04:12;;;;;;;6.05;2.80;;;;;;;17.44;94.98;99620.19;6297228;28;20102;-70
2023/06/02 00:07:13;;;;;;;6.03;3.35;;;;;;;17.41;96.38;99611.72;6295802;28;20096;-70
2023/06/02 00:10:13;;;;;;;5.75;3.20;;;;;;;17.37;97.13;99613.81;6297045;28;20048;-71
2023/06/02 00:13:14;;;;;;;5.95;3.15;;;;;;;17.30;99.07;99621.50;6297239;28;20139;-70
2023/06/02 00:16:15;;;;;;;4.75;2.90;;;;;;;17.29;100.00;99616.38;6295509;28;20055;-73
2023/06/02 00:19:18;;;;;;;6.00;3.23;;;;;;;17.30;100.00;99618.03;6296967;28;20055;-70
2023/06/02 00:22:19;;;;;;;4.05;2.83;;;;;;;17.34;100.00;99611.50;6296629;28;20305;-72
2023/06/02 00:25:20;;;;;;;6.57;3.20;;;;;;;17.37;100.00;99605.91;6296947;28;20388;-73
2023/06/02 00:28:21;;;;;;;4.85;3.22;;;;;;;17.40;100.00;99608.28;6295463;28;20048;-72
2023/06/02 00:31:22;;;;;;;5.70;2.95;;;;;;;17.40;100.00;99610.06;6295393;28;20597;-73
2023/06/02 00:34:23;;;;;;;8.32;3.35;;;;;;;17.41;100.00;99606.47;6295339;28;20060;-72
2023/06/02 00:37:24;;;;;;;6.72;3.22;;;;;;;17.40;100.00;99597.72;6295610;28;20113;-72
2023/06/02 00:40:24;;;;;;;7.60;3.20;;;;;;;17.41;100.00;99598.53;6295279;28;20114;-72
2023/06/02 00:43:25;;;;;;;5.00;3.25;;;;;;;17.38;100.00;99601.47;6295724;28;20059;-73
2023/06/02 00:46:26;;;;;;;4.93;3.00;;;;;;;17.31;100.00;99598.59;6295502;28;20064;-72
2023/06/02 00:49:27;;;;;;;9.95;3.67;;;;;;;17.29;100.00;99593.47;6295335;28;20093;-72
2023/06/02 00:52:31;;;;;;;6.03;3.30;;;;;;;17.30;100.00;99604.88;6295713;28;20056;-72
2023/06/02 00:55:31;;;;;;;6.72;3.63;;;;;;;17.30;100.00;99602.22;6297243;28;20084;-72
2023/06/02 00:58:37;;;;;;;4.07;2.47;;;;;;;17.24;100.00;99613.38;6299923;28;20052;-73
2023/06/02 01:01:39;;;;;;;5.65;3.28;;;;;;;17.28;100.00;99615.56;6300645;28;20056;-72
2023/06/02 01:04:40;;;;;;;6.60;3.63;;;;;;;17.31;100.00;99612.59;6299645;28;20056;-72
2023/06/02 01:07:47;;;;;;;6.80;3.75;;;;;;;17.23;100.00;99619.59;6299424;28;20056;-72
2023/06/02 01:10:50;;;;;;;5.50;3.47;;;;;;;17.23;100.00;99606.41;6299210;28;20113;-72
2023/06/02 01:13:51;;;;;;;5.20;3.35;;;;;;;17.23;100.00;99609.88;6298641;28;20072;-72
2023/06/02 01:16:51;;;;;;;5.57;3.35;;;;;;;17.24;100.00;99611.53;6300161;28;20045;-73
2023/06/02 01:19:53;;;;;;;10.90;3.65;;;;;;;17.24;100.00;99601.00;6299158;28;20052;-73
2023/06/02 01:23:02;;;;;;;5.65;3.40;;;;;;;17.24;100.00;99616.81;6300142;28;20049;-73
2023/06/02 01:26:08;;;;;;;5.53;3.47;;;;;;;17.23;100.00;99614.31;6300013;28;20048;-72
2023/06/02 01:29:09;;;;;;;4.90;2.97;;;;;;;17.18;100.00;99603.41;6300027;28;20056;-72
2023/06/02 01:32:29;;;;;;;4.40;3.05;;;;;;;17.12;100.00;99603.00;6299120;28;20045;-73
2023/06/02 01:35:41;;;;;;;6.88;3.22;;;;;;;16.98;100.00;99602.66;6298783;28;20052;-72
2023/06/02 01:38:43;;;;;;;4.97;2.80;;;;;;;17.00;100.00;99600.72;6299881;28;20055;-72
2023/06/02 01:41:45;;;;;;;5.32;2.88;;;;;;;16.95;100.00;99597.69;6298519;28;20419;-73
2023/06/02 01:44:50;;;;;;;11.48;3.10;;;;;;;16.86;100.00;99592.31;6332382;28;20052;-72
2023/06/02 01:47:50;;;;;;;4.57;3.22;;;;;;;16.81;100.00;99593.72;6299636;28;20060;-73
2023/06/02 01:50:51;;;;;;;5.43;3.17;;;;;;;16.83;100.00;99592.59;6298235;28;20060;-72
2023/06/02 01:53:52;;;;;;;4.97;3.33;;;;;;;16.77;100.00;99590.50;6298623;28;20547;-72
2023/06/02 01:56:53;;;;;;;6.60;2.92;;;;;;;16.71;100.00;99591.09;6298609;28;20060;-72
2023/06/02 01:59:54;;;;;;;5.70;3.17;;;;;;;16.71;100.00;99589.28;6298282;28;20057;-72
2023/06/02 02:02:57;;;;;;;4.20;2.83;;;;;;;16.67;100.00;99593.16;6298188;28;20496;-72
2023/06/02 02:05:59;;;;;;;6.53;3.45;;;;;;;16.61;100.00;99600.81;6298323;28;20056;-72
2023/06/02 02:09:00;;;;;;;9.63;3.40;;;;;;;16.55;100.00;99586.41;6299607;28;20095;-72
2023/06/02 02:12:01;;;;;;;6.33;3.63;;;;;;;16.52;100.00;99589.34;6298977;28;20048;-71
2023/06/02 02:15:02;;;;;;;5.82;3.20;;;;;;;16.44;100.00;99587.44;6299281;28;20055;-70
2023/06/02 02:18:04;;;;;;;6.22;3.83;;;;;;;16.39;100.00;99579.13;6299122;28;20052;-71
2023/06/02 02:21:05;;;;;;;6.35;3.78;;;;;;;16.35;100.00;99588.28;6298793;28;20044;-70
2023/06/02 02:24:07;;;;;;;5.60;3.35;;;;;;;16.32;100.00;99594.66;6298752;28;20136;-71
2023/06/02 02:27:08;;;;;;;6.93;3.47;;;;;;;16.34;100.00;99588.44;6297702;28;20185;-71
2023/06/02 02:30:11;;;;;;;5.07;2.95;;;;;;;16.29;100.00;99588.84;6297602;28;20051;-71
2023/06/02 02:33:13;;;;;;;5.28;3.30;;;;;;;16.16;100.00;99575.97;6298382;28;20049;-70
2023/06/02 02:36:16;;;;;;;5.68;3.70;;;;;;;16.14;100.00;99580.56;6298381;28;20083;-71
2023/06/02 02:39:20;;;;;;;8.98;3.78;;;;;;;16.15;100.00;99578.78;6298040;28;20495;-71
2023/06/02 02:42:20;;;;;;;5.75;3.40;;;;;;;16.19;100.00;99577.53;6296988;28;20106;-71
2023/06/02 02:45:21;;;;;;;6.82;3.30;;;;;;;16.19;100.00;99573.06;6297111;28;20049;-71
2023/06/02 02:48:22;;;;;;;6.95;3.35;;;;;;;16.24;100.00;99577.91;6296962;28;20057;-70
2023/06/02 02:51:23;;;;;;;5.03;3.05;;;;;;;16.19;100.00;99578.34;6298140;28;20059;-71
2023/06/02 02:54:25;;;;;;;5.70;3.70;;;;;;;16.18;100.00;99579.28;6296767;28;20055;-71
2023/06/02 02:57:26;;;;;;;3.95;3.13;;;;;;;16.22;100.00;99579.84;6298302;28;20056;-72
2023/06/02 03:00:30;;;;;;;4.60;3.00;;;;;;;16.26;100.00;99579.41;6296780;28;20059;-70
2023/06/02 03:03:32;;;;;;;4.20;2.92;;;;;;;16.21;100.00;99575.56;6296605;28;20106;-70
2023/06/02 03:06:32;;;;;;;5.13;3.60;;;;;;;16.17;100.00;99582.91;6296702;28;20479;-70
2023/06/02 03:09:35;;;;;;;5.32;3.13;;;;;;;16.21;100.00;99573.75;6296802;28;20052;-70
2023/06/02 03:12:36;;;;;;;8.27;3.28;;;;;;;16.19;100.00;99578.34;6297762;28;20052;-70
2023/06/02 03:15:37;;;;;;;7.60;4.00;;;;;;;16.21;100.00;99583.47;6298001;28;20055;-69
2023/06/02 03:18:38;;;;;;;5.20;3.28;;;;;;;16.22;100.00;99582.50;6297293;28;20139;-69
2023/06/02 03:21:42;;;;;;;4.97;3.03;;;;;;;16.19;100.00;99578.34;6297776;28;20111;-70
2023/06/02 03:24:43;;;;;;;10.30;3.60;;;;;;;16.29;100.00;99587.06;6297734;28;20052;-70
2023/06/02 03:27:44;;;;;;;13.68;4.00;;;;;;;16.29;100.00;99583.59;6296083;28;20493;-70
2023/06/02 03:30:45;;;;;;;7.40;3.97;;;;;;;16.29;100.00;99586.22;6329929;28;20060;-70
2023/06/02 03:33:46;;;;;;;7.05;3.65;;;;;;;16.29;100.00;99600.22;6297586;28;20063;-70
2023/06/02 03:36:48;;;;;;;10.45;3.97;;;;;;;16.34;100.00;99596.31;6297470;28;20511;-70
2023/06/02 03:39:51;;;;;;;9.65;3.35;;;;;;;16.42;100.00;99599.91;6296098;28;20052;-71
2023/06/02 03:42:52;;;;;;;6.00;3.67;;;;;;;16.44;100.00;99595.31;6297255;28;20045;-70
2023/06/02 03:45:53;;;;;;;9.23;4.68;;;;;;;16.46;100.00;99596.00;6296044;28;20057;-70
2023/06/02 03:48:54;;;;;;;10.35;3.15;;;;;;;16.45;100.00;99597.00;6296214;28;20068;-70
2023/06/02 03:51:57;;;;;;;5.60;3.53;;;;;;;16.42;100.00;99592.00;6296972;28;20560;-70
2023/06/02 03:54:59;;;;;;;11.27;4.07;;;;;;;16.39;100.00;99581.78;6297211;28;20113;-70
2023/06/02 03:57:59;;;;;;;6.82;3.35;;;;;;;16.38;100.00;99582.72;6297479;28;20057;-70
2023/06/02 04:01:01;;;;;;;8.90;3.55;;;;;;;16.53;100.00;99585.72;6295639;28;20049;-71
2023/06/02 04:04:02;;;;;;;9.73;4.22;;;;;;;16.51;100.00;99585.91;6297147;28;20056;-69
2023/06/02 04:07:03;;;;;;;6.88;4.30;;;;;;;16.59;100.00;99586.97;6295778;28;20064;-70
2023/06/02 04:10:05;;;;;;;9.18;4.18;;;;;;;16.66;100.00;99603.88;6329631;28;20496;-71
2023/06/02 04:13:06;;;;;;;5.90;3.42;;;;;;;16.58;100.00;99595.84;6296921;28;20495;-70
2023/06/02 04:16:10;;;;;;;20.13;4.20;;;;;;;16.64;100.00;99587.38;6297231;28;20128;-70
2023/06/02 04:19:11;;;;;;;6.45;3.35;;;;;;;16.71;100.00;99591.91;6296740;28;20050;-70
2023/06/02 04:22:12;;;;;;;5.07;3.72;;;;;;;16.70;100.00;99594.72;6295961;28;20049;-70
2023/06/02 04:25:12;;;;;;;5.97;4.10;;;;;;;16.77;100.00;99590.50;6295844;28;20075;-70
2023/06/02 04:28:13;;;;;;;5.88;3.72;;;;;;;16.87;100.00;99593.97;6296716;28;20048;-69
2023/06/02 04:31:14;;;;;;;5.97;3.85;;;;;;;16.96;100.00;99597.53;6298661;28;20132;-70
2023/06/02 04:34:15;;;;;;;7.88;3.70;;;;;;;16.84;100.00;99588.16;6300554;28;20048;-72
2023/06/02 04:37:16;;;;;;;6.68;4.07;;;;;;;17.04;100.00;99592.34;6300948;28;20059;-71
2023/06/02 04:40:17;;;;;;;7.30;3.78;;;;;;;17.09;100.00;99597.19;6299626;28;21152;-71
2023/06/02 04:43:18;;;;;;;11.52;4.07;;;;;;;17.11;100.00;99596.09;6333911;28;20053;-72
2023/06/02 04:46:19;;;;;;;11.07;4.30;;;;;;;17.14;100.00;99583.59;6333731;28;20084;-73
2023/06/02 04:49:20;;;;;;;7.03;3.80;;;;;;;17.22;100.00;99581.03;6301097;28;20059;-73
2023/06/02 04:52:21;;;;;;;8.82;4.05;;;;;;;17.48;100.00;99595.19;6299779;28;20052;-73
2023/06/02 04:55:21;;;;;;;6.50;3.50;;;;;;;17.48;100.00;99587.25;6299763;28;20086;-74
2023/06/02 04:58:24;;;;;;;9.57;4.30;;;;;;;17.66;100.00;99591.69;6299557;28;20059;-73
2023/06/02 05:01:28;;;;;;;13.40;4.07;;;;;;;17.66;100.00;99589.88;6300718;28;20076;-74
2023/06/02 05:04:29;;;;;;;6.53;3.95;;;;;;;17.71;100.00;99594.72;6299756;28;20083;-72
2023/06/02 05:07:29;;;;;;;11.27;4.13;;;;;;;17.86;100.00;99592.41;6300698;28;20048;-72
2023/06/02 05:10:32;;;;;;;6.85;3.50;;;;;;;17.97;100.00;99597.44;6300700;28;20135;-73
2023/06/02 05:13:34;;;;;;;5.80;4.13;;;;;;;17.98;100.00;99593.03;6300569;28;20048;-72
2023/06/02 05:16:35;;;;;;;14.65;4.13;;;;;;;18.14;100.00;99603.72;6299657;28;20067;-72
2023/06/02 05:19:39;;;;;;;5.53;3.53;;;;;;;18.30;100.00;99609.13;6300264;28;20503;-72
2023/06/02 05:22:40;;;;;;;8.65;4.68;;;;;;;18.52;100.00;99606.94;6299344;28;20045;-72
2023/06/02 05:25:41;;;;;;;7.60;4.30;;;;;;;18.58;100.00;99613.41;6299167;28;20059;-72
2023/06/02 05:28:41;;;;;;;7.32;5.05;;;;;;;18.65;100.00;99609.97;6300007;28;20106;-73
2023/06/02 05:31:42;;;;;;;6.35;4.43;;;;;;;18.75;100.00;99607.22;6298791;28;20458;-72
2023/06/02 05:34:44;;;;;;;7.88;4.07;;;;;;;18.81;100.00;99614.56;6298885;28;20484;-72
2023/06/02 05:37:44;;;;;;;9.32;4.57;;;;;;;18.93;100.00;99608.00;6299995;28;20052;-73
2023/06/02 05:40:45;;;;;;;5.97;3.83;;;;;;;19.03;100.00;99607.06;6332127;28;20098;-73
2023/06/02 05:43:46;;;;;;;10.40;5.93;;;;;;;19.24;100.00;99602.19;6299925;28;20052;-73
2023/06/02 05:46:47;;;;;;;7.50;4.00;;;;;;;19.35;99.93;99611.63;6299884;28;20094;-72
2023/06/02 05:49:47;;;;;;;9.50;4.18;;;;;;;19.67;97.82;99607.41;6299378;28;20455;-72
2023/06/02 05:52:50;;;;;;;17.48;5.35;;;;;;;19.83;96.89;99601.31;6297650;28;20454;-72
2023/06/02 05:55:51;;;;;;;7.30;4.30;;;;;;;19.91;94.88;99598.69;6299080;28;20114;-73
2023/06/02 05:58:51;;;;;;;10.73;4.43;;;;;;;19.90;93.98;99605.81;6297712;28;20050;-71
2023/06/02 06:01:52;;;;;;;8.23;4.93;;;;;;;20.04;93.61;99600.84;6298578;28;20045;-71
2023/06/02 06:04:53;;;;;;;8.52;3.40;;;;;;;20.17;93.85;99598.53;6298955;28;20466;-71
2023/06/02 06:07:54;;;;;;;5.73;3.47;;;;;;;20.13;92.62;99592.72;6298526;28;20088;-71
2023/06/02 06:10:54;;;;;;;5.33;3.37;;;;;;;20.42;92.07;99593.19;6297413;28;20083;-71
2023/06/02 06:13:55;;;;;;;9.63;3.00;;;;;;;20.55;91.56;99596.16;6297200;28;20056;-72
2023/06/02 06:16:56;;;;;;;5.70;3.30;;;;;;;20.64;89.36;99603.13;6298538;28;20135;-71
2023/06/02 06:19:58;;;;;;;6.10;3.38;;;;;;;20.83;89.63;99607.19;6330732;28;20462;-72
2023/06/02 06:23:00;;;;;;;5.45;3.03;;;;;;;21.07;88.81;99611.59;6298332;28;20041;-71
2023/06/02 06:26:01;;;;;;;5.20;2.90;;;;;;;21.33;85.18;99629.03;6298059;28;20178;-71
2023/06/02 06:29:04;;;;;;;8.80;3.23;;;;;;;21.60;82.69;99618.97;6297995;28;20048;-71
2023/06/02 06:32:10;;;;;;;8.75;3.47;;;;;;;21.72;82.59;99622.88;6302814;28;20040;-71
2023/06/02 06:35:11;;;;;;;5.10;3.17;;;;;;;21.91;80.67;99626.91;6322990;28;20056;-71
2023/06/02 06:38:11;;;;;;;5.17;3.30;;;;;;;22.11;78.60;99624.56;6321956;28;20055;-72
2023/06/02 06:41:12;;;;;;;3.43;2.70;;;;;;;22.14;79.79;99616.25;6321470;28;20415;-71
2023/06/02 06:44:13;;;;;;;7.23;2.90;;;;;;;22.09;78.43;99615.97;6321481;28;20407;-72
2023/06/02 06:47:14;;;;;;;3.63;2.47;;;;;;;22.05;76.84;99614.66;6322713;28;20672;-72
2023/06/02 06:50:18;;;;;;;4.20;2.58;;;;;;;22.41;77.82;99612.22;6322866;28;20048;-72
2023/06/02 06:53:19;;;;;;;9.10;3.38;;;;;;;22.47;75.16;99602.69;6320583;28;20048;-72
2023/06/02 06:56:20;;;;;;;3.20;2.50;;;;;;;22.69;75.01;99612.44;6321131;28;20191;-71
2023/06/02 06:59:20;;;;;;;6.40;2.60;;;;;;;22.98;72.36;99613.44;6321452;28;20077;-71
2023/06/02 07:02:21;;;;;;;4.87;3.10;;;;;;;23.04;72.30;99609.22;6322242;28;20082;-71
2023/06/02 07:05:22;;;;;;;3.90;2.83;;;;;;;23.20;72.10;99611.69;6321691;28;20051;-71
2023/06/02 07:08:23;;;;;;;6.53;2.97;;;;;;;23.29;71.96;99610.56;6321667;28;20120;-71
2023/06/02 07:11:26;;;;;;;5.87;2.63;;;;;;;23.40;72.81;99611.09;6320567;28;20102;-72
2023/06/02 07:14:27;;;;;;;4.93;2.50;;;;;;;23.83;70.46;99605.84;6320380;28;20044;-71
2023/06/02 07:17:28;;;;;;;3.65;2.33;;;;;;;23.86;68.56;99602.78;6320701;28;20047;-69
2023/06/02 07:20:30;;;;;;;7.70;3.30;;;;;;;24.06;67.53;99610.97;6320523;28;20051;-69
2023/06/02 07:23:31;;;;;;;3.95;2.80;;;;;;;23.98;66.36;99608.44;6320507;28;20047;-71
2023/06/02 07:26:32;;;;;;;6.87;2.47;;;;;;;24.09;63.76;99611.41;6320528;28;20054;-71
2023/06/02 07:29:33;;;;;;;4.67;2.50;;;;;;;24.30;64.10;99607.88;6320237;28;20169;-71
2023/06/02 07:32:33;;;;;;;8.50;2.87;;;;;;;24.50;65.90;99609.88;6320101;28;20048;-71
2023/06/02 07:35:37;;;;;;;2.50;2.03;;;;;;;24.71;63.85;99609.81;6320098;28;20492;-71
2023/06/02 07:38:38;;;;;;;4.13;2.28;;;;;;;25.09;62.11;99601.38;6320267;28;20051;-71
2023/06/02 07:41:38;;;;;;;3.60;2.63;;;;;;;24.96;59.91;99603.16;6319903;28;20055;-69
2023/06/02 07:44:41;;;;;;;6.70;2.30;;;;;;;25.16;60.37;99612.06;6321324;28;20051;-71
2023/06/02 07:47:42;;;;;;;4.18;2.25;;;;;;;25.22;61.03;99613.16;6319978;28;20403;-72
2023/06/02 07:50:43;;;;;;;4.67;2.50;;;;;;;25.26;60.36;99615.22;6319754;28;20201;-71
2023/06/02 07:53:44;;;;;;;3.73;2.40;;;;;;;25.34;60.29;99614.22;6319896;28;20522;-71
2023/06/02 07:56:45;;;;;;;5.55;3.00;;;;;;;25.50;61.49;99616.53;6321170;28;20101;-71
2023/06/02 07:59:45;;;;;;;3.47;2.17;;;;;;;25.67;59.75;99618.84;6320028;28;20131;-74
2023/06/02 08:02:49;;;;;;;3.67;2.40;;;;;;;26.01;59.61;99611.75;6319958;28;20130;-73
2023/06/02 08:05:50;;;;;;;3.00;2.47;;;;;;;26.21;56.55;99611.72;6325349;28;20051;-73
2023/06/02 08:08:51;;;;;;;5.23;2.50;;;;;;;25.88;56.06;99609.81;6325974;28;20486;-70
2023/06/02 08:11:52;;;;;;;4.87;2.53;;;;;;;26.08;57.28;99615.22;6325037;28;20040;-72
2023/06/02 08:14:52;;;;;;;4.15;2.42;;;;;;;26.31;56.28;99612.13;6324918;28;20044;-73
2023/06/02 08:17:58;;;;;;;6.07;2.43;;;;;;;26.51;52.96;99612.09;6325916;28;20048;-73
2023/06/02 08:20:59;;;;;;;3.95;2.47;;;;;;;26.82;53.01;99599.94;6325876;28;20052;-72
2023/06/02 08:24:00;;;;;;;4.03;2.33;;;;;;;26.77;52.71;99605.06;6324877;28;20044;-73
2023/06/02 08:27:00;;;;;;;3.30;2.30;;;;;;;27.11;51.12;99607.41;6323374;28;20056;-70
2023/06/02 08:30:01;;;;;;;4.67;2.80;;;;;;;27.32;48.59;99600.16;6322890;28;20048;-70
2023/06/02 08:33:05;;;;;;;3.78;2.55;;;;;;;27.22;50.41;99605.97;6323237;28;20045;-70
2023/06/02 08:36:07;;;;;;;6.38;2.33;;;;;;;27.07;49.63;99598.19;6323163;28;20083;-70
2023/06/02 08:39:08;;;;;;;3.17;2.15;;;;;;;27.27;50.47;99606.16;6323251;28;20059;-70
2023/06/02 08:42:13;;;;;;;5.27;2.60;;;;;;;27.53;48.73;99601.72;6323720;28;20060;-70
2023/06/02 08:45:14;;;;;;;5.22;2.30;;;;;;;27.63;46.12;99606.56;6324234;28;20269;-69
2023/06/02 08:48:17;;;;;;;3.75;2.40;;;;;;;27.76;46.52;99609.19;6325140;28;20104;-69
2023/06/02 08:51:22;;;;;;;8.98;2.40;;;;;;;27.78;47.24;99606.25;6323794;28;20526;-69
2023/06/02 08:54:23;;;;;;;5.05;2.60;;;;;;;27.86;45.79;99598.81;6323742;28;20087;-69
2023/06/02 08:57:25;;;;;;;3.90;2.65;;;;;;;27.78;48.13;99588.34;6324033;28;20087;-69
2023/06/02 09:00:27;;;;;;;6.25;2.60;;;;;;;27.95;47.00;99585.16;6324937;28;20052;-69
2023/06/02 09:03:30;;;;;;;6.18;2.63;;;;;;;28.10;47.42;99582.94;6323612;28;20461;-69
2023/06/02 09:06:31;;;;;;;4.60;2.67;;;;;;;28.07;44.44;99586.09;6323565;28;20080;-69
2023/06/02 09:09:39;;;;;;;7.57;2.30;;;;;;;28.28;44.29;99577.63;6324500;28;20121;-69
2023/06/02 09:12:48;;;;;;;7.25;2.10;;;;;;;28.40;46.35;99582.28;6323237;28;20048;-69
2023/06/02 09:15:55;;;;;;;3.60;2.22;;;;;;;28.34;41.45;99581.28;6322312;28;20094;-69
2023/06/02 09:19:00;;;;;;;3.65;2.40;;;;;;;28.76;43.13;99576.13;6323408;28;20060;-69
2023/06/02 09:22:04;;;;;;;3.58;2.22;;;;;;;28.78;39.69;99587.44;6324338;28;20062;-69
2023/06/02 09:25:20;;;;;;;7.60;2.08;;;;;;;29.04;39.17;99577.47;6324409;28;20052;-70
2023/06/02 09:28:23;;;;;;;4.68;2.33;;;;;;;28.99;41.11;99577.28;6324248;28;20148;-69
2023/06/02 09:31:25;;;;;;;2.65;2.08;;;;;;;29.28;39.18;99581.06;6323089;28;20048;-70
2023/06/02 09:34:37;;;;;;;7.57;2.47;;;;;;;29.30;37.82;99578.97;6323941;28;20101;-70
2023/06/02 09:37:57;;;;;;;3.38;2.10;;;;;;;29.16;38.34;99569.47;6324353;28;20439;-69
2023/06/02 09:41:14;;;;;;;2.60;1.92;;;;;;;28.71;38.18;99574.13;6323942;28;20515;-69
2023/06/02 09:44:16;;;;;;;7.57;2.38;;;;;;;28.75;39.36;99574.50;6322430;28;20450;-70
2023/06/02 09:47:20;;;;;;;3.50;1.95;;;;;;;28.00;38.83;99569.22;6322554;28;20052;-70
2023/06/02 09:50:37;;;;;;;4.18;2.33;;;;;;;28.05;39.48;99562.16;6322440;28;20412;-70
2023/06/02 09:53:38;;;;;;;4.07;2.33;;;;;;;27.72;39.61;99551.69;6322560;28;20048;-70
2023/06/02 09:56:40;;;;;;;4.50;2.20;;;;;;;27.33;40.90;99562.44;6322391;28;20101;-70
2023/06/02 09:59:42;;;;;;;7.55;2.30;;;;;;;28.71;39.44;99549.97;6322529;28;20263;-69
2023/06/02 10:02:44;;;;;;;3.85;2.35;;;;;;;29.32;38.73;99548.19;6323470;28;20048;-69
2023/06/02 10:06:02;;;;;;;5.00;2.40;;;;;;;29.85;37.92;99549.22;6321923;28;20408;-69
2023/06/02 10:09:15;;;;;;;3.35;2.28;;;;;;;30.29;38.87;99540.81;6322124;28;20048;-70
2023/06/02 10:12:35;;;;;;;4.85;1.90;;;;;;;30.48;34.51;99536.16;6321897;28;20117;-69
2023/06/02 10:15:54;;;;;;;2.72;2.05;;;;;;;31.04;35.66;99536.50;6323238;28;20534;-70
2023/06/02 10:19:01;;;;;;;3.15;1.85;;;;;;;31.09;35.57;99540.13;6323194;28;20040;-70
2023/06/02 10:22:14;;;;;;;4.88;1.92;;;;;;;31.27;34.54;99535.56;6322871;28;20097;-70
2023/06/02 10:25:35;;;;;;;3.67;2.10;;;;;;;29.62;33.41;99530.38;6323063;28;20083;-70
2023/06/02 10:28:36;;;;;;;6.38;1.95;;;;;;;28.89;35.15;99538.38;6322781;28;20142;-70
2023/06/02 10:31:37;;;;;;;4.25;2.22;;;;;;;28.84;35.98;99529.38;6321654;28;20385;-70
2023/06/02 10:34:39;;;;;;;5.32;2.25;;;;;;;30.26;34.92;99525.97;6322495;28;20052;-70
2023/06/02 10:37:43;;;;;;;2.10;1.75;;;;;;;30.50;33.73;99517.91;6321747;28;20044;-70
2023/06/02 10:40:52;;;;;;;4.32;2.25;;;;;;;30.49;32.68;99522.44;6322492;28;20056;-70
2023/06/02 10:44:22;;;;;;;5.85;2.40;;;;;;;30.61;31.66;99516.22;6322594;28;20044;-70
2023/06/02 10:47:25;;;;;;;3.90;2.20;;;;;;;30.99;30.87;99509.44;6321234;28;20048;-70
2023/06/02 10:50:53;;;;;;;2.25;1.98;;;;;;;31.49;30.90;99504.19;6321373;28;20059;-70
2023/06/02 10:54:04;;;;;;;4.43;1.98;;;;;;;31.37;29.81;99498.00;6322655;28;20125;-70
2023/06/02 10:57:04;;;;;;;4.55;2.20;;;;;;;31.56;31.43;99493.22;6321039;28;20056;-69
2023/06/02 11:00:35;;;;;;;4.45;2.00;;;;;;;31.64;30.25;99503.59;6321262;28;20491;-69
2023/06/02 11:03:36;;;;;;;5.60;1.73;;;;;;;31.66;29.14;99495.28;6320705;28;20048;-70
2023/06/02 11:06:37;;;;;;;7.65;2.38;;;;;;;31.55;29.43;99483.53;6322276;28;20131;-70
2023/06/02 11:09:42;;;;;;;6.47;2.03;;;;;;;31.85;29.47;99485.84;6320745;28;20051;-70
2023/06/02 11:12:54;;;;;;;3.47;2.00;;;;;;;32.25;31.22;99484.84;6322093;28;20131;-70
2023/06/02 11:15:55;;;;;;;2.75;1.85;;;;;;;32.08;31.49;99497.53;6321767;28;20503;-70
2023/06/02 11:18:58;;;;;;;4.47;2.10;;;;;;;32.06;28.80;99486.16;6311806;28;20148;-69
2023/06/02 11:22:05;;;;;;;3.55;2.13;;;;;;;30.92;30.67;99478.09;6297361;28;20087;-70
2023/06/02 11:25:07;;;;;;;4.35;2.67;;;;;;;31.08;30.27;99478.38;6294125;28;20131;-70
2023/06/02 11:28:22;;;;;;;2.67;1.75;;;;;;;30.51;31.51;99468.38;6312435;28;20075;-70
2023/06/02 11:31:23;;;;;;;3.50;1.90;;;;;;;31.21;31.35;99463.78;6295628;28;20049;-70
2023/06/02 11:34:26;;;;;;;3.13;2.10;;;;;;;31.36;32.76;99461.34;6296224;28;20051;-69
2023/06/02 11:37:29;;;;;;;4.50;2.08;;;;;;;31.95;32.12;99460.91;6295216;28;20090;-69
2023/06/02 11:40:31;;;;;;;3.45;2.13;;;;;;;32.16;30.20;99462.03;6296082;28;20109;-70
2023/06/02 11:43:31;;;;;;;4.53;2.08;;;;;;;32.40;33.10;99456.41;6296363;28;20051;-69
2023/06/02 11:46:35;;;;;;;2.83;2.10;;;;;;;31.97;30.36;99452.56;6295399;28;20048;-69
2023/06/02 11:49:38;;;;;;;4.13;2.08;;;;;;;32.33;30.72;99446.59;6296140;28;20412;-69
2023/06/02 11:52:38;;;;;;;2.67;1.98;;;;;;;32.27;31.65;99453.00;6296469;28;20044;-70
2023/06/02 11:55:40;;;;;;;4.28;2.03;;;;;;;31.71;29.24;99449.50;6295083;28;20055;-70
2023/06/02 11:58:48;;;;;;;3.13;1.85;;;;;;;31.51;29.40;99450.84;6295356;28;20048;-69
2023/06/02 12:01:48;;;;;;;5.53;1.77;;;;;;;31.53;29.14;99439.81;6295994;28;20045;-70
2023/06/02 12:04:49;;;;;;;5.15;2.17;;;;;;;31.32;29.81;99444.84;6296386;28;20101;-69
2023/06/02 12:07:50;;;;;;;3.58;1.90;;;;;;;31.80;29.99;99449.91;6296043;28;20101;-69
2023/06/02 12:10:52;;;;;;;5.75;2.00;;;;;;;31.50;28.41;99449.22;6294950;28;20059;-70
2023/06/02 12:14:04;;;;;;;3.22;2.13;;;;;;;30.92;28.86;99439.56;6294871;28;20090;-70
2023/06/02 12:17:05;;;;;;;3.05;2.15;;;;;;;31.55;29.20;99440.38;6296211;28;20063;-69
2023/06/02 12:20:07;;;;;;;4.78;2.30;;;;;;;31.96;32.89;99442.84;6295949;28;20045;-69
2023/06/02 12:23:09;;;;;;;4.03;2.20;;;;;;;32.25;30.40;99438.13;6295893;28;20051;-69
2023/06/02 12:26:10;;;;;;;3.53;2.05;;;;;;;32.35;29.44;99443.66;6294663;28;20076;-70
2023/06/02 12:29:11;;;;;;;;;;;;;;;31.81;30.00;99432.66;6296213;28;20048;-70
2023/06/02 12:32:12;;;;;;;3.38;1.92;;;;;;;31.31;31.54;99434.31;6295930;28;19920;-70
2023/06/02 12:35:12;;;;;;;;;;;;;;;31.72;31.69;99433.06;6296142;28;20061;-70
2023/06/02 12:38:18;;;;;;;2.90;1.93;;;;;;;31.89;30.60;99426.84;6296101;28;20417;-69
2023/06/02 12:41:20;;;;;;;2.45;1.83;;;;;;;32.16;30.48;99426.13;6295576;28;20110;-69
2023/06/02 12:44:20;;;;;;;;;;;;;;;32.19;30.66;99415.66;6328816;28;20051;-70
2023/06/02 12:47:21;;;;;;;3.17;1.92;;;;;;;32.46;31.54;99414.91;6295671;28;19920;-70
2023/06/02 12:50:21;;;;;;;;;;;;;;;32.55;30.59;99415.28;6295066;28;20049;-70
2023/06/02 12:53:22;;;;;;;3.17;1.93;;;;;;;31.17;30.24;99398.78;6300126;28;19928;-70
2023/06/02 12:56:23;;;;;;;;;;;;;;;31.80;30.53;99404.06;6299076;28;20477;-70
2023/06/02 12:59:23;;;;;;;2.33;1.77;;;;;;;32.17;30.72;99404.31;6300103;28;19927;-70
2023/06/02 13:02:24;;;;;;;3.55;2.00;;;;;;;31.91;30.51;99408.53;6298918;28;20123;-71
2023/06/02 13:05:26;;;;;;;;;;;;;;;31.86;30.44;99398.50;6299228;28;20667;-71
2023/06/02 13:08:27;;;;;;;2.60;1.98;;;;;;;31.97;29.76;99394.03;6299654;28;19920;-71
2023/06/02 13:11:28;;;;;;;3.58;1.90;;;;;;;31.59;30.02;99392.16;6298353;28;20048;-70
2023/06/02 13:14:29;;;;;;;;;;;;;;;32.02;29.62;99396.84;6298865;28;20053;-70
2023/06/02 13:17:32;;;;;;;3.73;2.10;;;;;;;31.71;28.65;99398.25;6299398;28;19921;-70
2023/06/02 13:20:35;;;;;;;5.18;2.10;;;;;;;31.29;29.79;99390.63;6299530;28;20136;-70
2023/06/02 13:23:37;;;;;;;7.78;2.00;;;;;;;31.17;30.45;99389.88;6299294;28;20059;-69
2023/06/02 13:26:38;;;;;;;3.42;2.20;;;;;;;31.65;30.34;99393.88;6299316;28;20049;-70
2023/06/02 13:29:39;;;;;;;2.55;2.00;;;;;;;31.80;29.31;99404.88;6298017;28;20507;-70
2023/06/02 13:32:39;;;;;;;4.88;1.92;;;;;;;31.28;30.50;99386.31;6299077;28;20049;-70
2023/06/02 13:35:40;;;;;;;;;;;;;;;31.17;31.72;99390.69;6298193;28;20059;-70
2023/06/02 13:38:42;;;;;;;3.17;2.03;;;;;;;30.98;31.51;99394.69;6299131;28;19920;-71
2023/06/02 13:41:43;;;;;;;3.72;2.08;;;;;;;30.38;30.80;99396.81;6298708;28;20135;-70
2023/06/02 13:44:43;;;;;;;2.78;1.75;;;;;;;30.23;31.55;99397.31;6297606;28;20052;-71
2023/06/02 13:47:44;;;;;;;4.15;1.88;;;;;;;30.27;32.97;99392.25;6298852;28;20059;-70
2023/06/02 13:50:45;;;;;;;3.88;2.20;;;;;;;30.28;33.06;99393.91;6298780;28;20087;-70
2023/06/02 13:53:46;;;;;;;3.05;2.00;;;;;;;30.30;32.97;99381.88;6298645;28;20055;-70
2023/06/02 13:56:47;;;;;;;3.22;2.25;;;;;;;30.60;32.75;99394.28;6297277;28;20056;-70
2023/06/02 13:59:50;;;;;;;3.10;2.10;;;;;;;31.08;34.76;99390.28;6298670;28;20151;-69
2023/06/02 14:02:51;;;;;;;5.15;1.98;;;;;;;30.95;33.85;99379.00;6298065;28;20049;-69
2023/06/02 14:05:52;;;;;;;2.05;1.75;;;;;;;30.94;34.45;99380.91;6297323;28;20052;-70
2023/06/02 14:08:53;;;;;;;9.27;2.38;;;;;;;30.51;33.78;99387.63;6297071;28;20155;-70
2023/06/02 14:11:53;;;;;;;3.50;2.20;;;;;;;29.81;33.03;99386.75;6297313;28;20049;-69
2023/06/02 14:14:54;;;;;;;3.50;2.17;;;;;;;30.38;35.48;99386.06;6298288;28;20056;-70
2023/06/02 14:17:57;;;;;;;2.90;2.05;;;;;;;30.52;34.52;99381.22;6297912;28;20076;-71